Jalma Topic — A8IQ6 — position and weather

sailwx.info

Track history (hours):
 
Tides and Currents Weather Stations Pressure Air Temp Water Temp Dewpoint Dewpoint Depression Visibility Wind Speed Wind Dir Waves Ship Positions

Jalma Topic

Last reported at 2015-Mar-25 14:30 UTC. Time now 2015-Mar-26 23:46 UTC.
Position N 34°39' W 023°06'.

Length 183 m; draft 10.5 m.

Type: Cargo ship. MMSI: 636012871.

Date/timePositionNaut miles runAvg speedWind from/ knotsBaromVisibWave heightAir tempDewpointWater temp
2015-Mar-25 14:30N 34°39' W 023°06'1412.6
2015-Mar-25 13:25N 34°37' W 023°23'1112.6
2015-Mar-25 12:33N 34°35' W 023°36'1312.9
2015-Mar-25 11:33N 34°33' W 023°51'1312.8
2015-Mar-25 10:33N 34°31' W 024°07'1312.8
2015-Mar-25 09:33N 34°29' W 024°22'1612.6
2015-Mar-25 08:19N 34°27' W 024°41'2812.8
2015-Mar-25 06:09N 34°23' W 025°14'912.8
2015-Mar-25 05:26N 34°22' W 025°25'2512.8
2015-Mar-25 03:29N 34°17' W 025°54'3113.0
2015-Mar-25 01:08N 34°10' W 026°30'913.4
2015-Mar-25 00:28N 34°08' W 026°41'  
Track history (hours):
 
Tides and Currents Weather Stations Pressure Air Temp Water Temp Dewpoint Dewpoint Depression Visibility Wind Speed Wind Dir Waves Ship Positions

Jalma Topic

Last reported at 2015-Mar-25 14:30 UTC. Time now 2015-Mar-26 23:46 UTC.
Position N 34°39' W 023°06'.

Length 183 m; draft 10.5 m.

Type: Cargo ship. MMSI: 636012871.

Date/timePositionNaut miles runAvg speedWind from/ knotsBaromVisibWave heightAir tempDewpointWater temp
2015-Mar-25 14:30N 34°39' W 023°06'1412.6
2015-Mar-25 13:25N 34°37' W 023°23'1112.6
2015-Mar-25 12:33N 34°35' W 023°36'1312.9
2015-Mar-25 11:33N 34°33' W 023°51'1312.8
2015-Mar-25 10:33N 34°31' W 024°07'1312.8
2015-Mar-25 09:33N 34°29' W 024°22'1612.6
2015-Mar-25 08:19N 34°27' W 024°41'2812.8
2015-Mar-25 06:09N 34°23' W 025°14'912.8
2015-Mar-25 05:26N 34°22' W 025°25'2512.8
2015-Mar-25 03:29N 34°17' W 025°54'3113.0
2015-Mar-25 01:08N 34°10' W 026°30'913.4
2015-Mar-25 00:28N 34°08' W 026°41'  

Dump ship's entire track history